This is the latest recevied weather packets stored in our database for station/object YM2KRB-11. If no packets are shown the sender has not sent any weather packets the latest 10 day(s).
| Time | Temp. | Humidity | Pressure | Rain* | Wind** | Luminosity | Snow |
|---|---|---|---|---|---|---|---|
| 1777962234 | 17.22° C | 45% | 940 hPa | - | - | - | - |
| 1777961033 | 15.56° C | 49% | 940 hPa | - | - | - | - |
| 1777959832 | 15° C | 50% | 940 hPa | - | - | - | - |
| 1777958632 | 13.89° C | 52% | 939.7 hPa | - | - | - | - |
| 1777957431 | 14.44° C | 52% | 939.7 hPa | - | - | - | - |
| 1777956230 | 12.78° C | 56% | 939.6 hPa | - | - | - | - |
| 1777955029 | 12.78° C | 56% | 939.4 hPa | - | - | - | - |
| 1777953828 | 12.78° C | 56% | 939.4 hPa | - | - | - | - |
| 1777952628 | 11.67° C | 58% | 939.3 hPa | - | - | - | - |
| 1777951427 | 11.11° C | 61% | 939.2 hPa | - | - | - | - |
| 1777950226 | 11.11° C | 62% | 939.3 hPa | - | - | - | - |
| 1777949025 | 9.44° C | 65% | 939 hPa | - | - | - | - |
| 1777947824 | 8.89° C | 67% | 938.9 hPa | - | - | - | - |
| 1777946623 | 8.89° C | 68% | 938.8 hPa | - | - | - | - |
| 1777945423 | 9.44° C | 66% | 938.6 hPa | - | - | - | - |
| 1777944222 | 9.44° C | 64% | 938.4 hPa | - | - | - | - |
| 1777943021 | 9.44° C | 64% | 938.4 hPa | - | - | - | - |
| 1777941820 | 10° C | 63% | 938.4 hPa | - | - | - | - |
| 1777940619 | 10.56° C | 63% | 938.3 hPa | - | - | - | - |
| 1777939418 | 9.44° C | 65% | 938.2 hPa | - | - | - | - |
| 1777938218 | 10° C | 64% | 938.2 hPa | - | - | - | - |
| 1777937017 | 9.44° C | 63% | 938.3 hPa | - | - | - | - |
| 1777935816 | 8.89° C | 66% | 938.3 hPa | - | - | - | - |
| 1777934615 | 8.89° C | 67% | 938.2 hPa | - | - | - | - |
| 1777933415 | 8.89° C | 68% | 938.1 hPa | - | - | - | - |
* Rain since midnight (hover to see other rain measurements)
** Current wind speed in m/s (hover to see current wind gust speed)